Time;durP1;ratioP1;P1;durP2;ratioP2;P2;SDS_P1;SDS_P2;PMS_P1;PMS_P2;Temp;Humidity;BMP_temperature;BMP_pressure;BME280_temperature;BME280_humidity;BME280_pressure;Samples;Min_cycle;Max_cycle;Signal;HPM_P1;HPM_P2
2022/05/24 00:01:29;;;;;;;5.95;2.50;;;15.50;99.90;;;;;;5095479;28;20073;-77
2022/05/24 00:03:56;;;;;;;7.55;3.28;;;15.50;99.90;;;;;;5090114;28;20062;-76
2022/05/24 00:06:25;;;;;;;6.95;2.50;;;15.50;99.90;;;;;;5097016;28;20023;-76
2022/05/24 00:08:52;;;;;;;6.70;2.90;;;15.50;99.90;;;;;;5095554;28;20412;-76
2022/05/24 00:11:17;;;;;;;9.13;2.80;;;15.50;99.90;;;;;;5096913;28;20103;-76
2022/05/24 00:13:43;;;;;;;5.78;2.40;;;15.50;99.90;;;;;;5096995;28;20056;-76
2022/05/24 00:16:10;;;;;;;10.18;2.45;;;15.60;99.90;;;;;;5083557;28;20063;-77
2022/05/24 00:18:36;;;;;;;7.45;2.72;;;15.50;99.90;;;;;;5088204;28;20074;-76
2022/05/24 00:21:04;;;;;;;7.07;2.50;;;15.50;99.90;;;;;;5096751;28;20028;-76
2022/05/24 00:23:31;;;;;;;7.10;2.40;;;15.50;99.90;;;;;;5097089;28;20017;-76
2022/05/24 00:26:05;;;;;;;7.95;2.80;;;15.50;99.90;;;;;;5096874;28;20024;-76
2022/05/24 00:28:32;;;;;;;8.10;2.60;;;15.50;99.90;;;;;;5095548;28;20526;-75
2022/05/24 00:31:00;;;;;;;7.40;2.63;;;15.50;99.90;;;;;;5095012;28;20024;-76
2022/05/24 00:33:26;;;;;;;7.85;2.60;;;15.50;99.90;;;;;;5096732;28;20025;-76
2022/05/24 00:35:53;;;;;;;8.48;3.28;;;15.50;99.90;;;;;;5096734;28;20024;-74
2022/05/24 00:38:36;;;;;;;6.28;2.25;;;15.40;99.90;;;;;;5096556;28;20044;-77
2022/05/24 00:41:14;;;;;;;7.45;3.10;;;15.40;99.90;;;;;;5086082;28;20028;-76
2022/05/24 00:43:46;;;;;;;6.28;2.50;;;15.40;99.90;;;;;;5095423;28;20024;-75
2022/05/24 00:46:22;;;;;;;6.95;3.00;;;15.40;99.90;;;;;;5096329;28;20083;-76
2022/05/24 00:48:56;;;;;;;8.05;2.83;;;15.30;99.90;;;;;;5095210;28;20020;-76
2022/05/24 00:51:47;;;;;;;6.82;2.28;;;15.30;99.90;;;;;;5095497;28;20030;-76
2022/05/24 00:54:14;;;;;;;5.68;2.22;;;15.30;99.90;;;;;;5099153;28;20016;-76
2022/05/24 00:56:52;;;;;;;6.18;2.17;;;15.30;99.90;;;;;;5098709;28;20492;-76
2022/05/24 00:59:37;;;;;;;7.60;2.83;;;15.30;99.90;;;;;;5100085;28;20048;-75
2022/05/24 01:02:04;;;;;;;7.70;2.72;;;15.30;99.90;;;;;;5098618;28;20028;-77
2022/05/24 01:04:30;;;;;;;6.65;2.42;;;15.30;99.90;;;;;;5094788;28;20542;-77
2022/05/24 01:06:57;;;;;;;4.45;2.47;;;15.30;99.90;;;;;;5100078;28;20024;-75
2022/05/24 01:09:42;;;;;;;9.73;2.88;;;15.30;99.90;;;;;;5099834;28;20081;-76
2022/05/24 01:12:17;;;;;;;6.50;2.25;;;15.30;99.90;;;;;;5099840;28;20055;-77
2022/05/24 01:14:43;;;;;;;8.35;2.67;;;15.30;99.90;;;;;;5098367;28;20111;-77
2022/05/24 01:17:09;;;;;;;10.80;3.13;;;15.20;99.90;;;;;;5093093;28;20027;-74
2022/05/24 01:19:47;;;;;;;6.28;2.42;;;15.20;99.90;;;;;;5099825;28;20032;-76
2022/05/24 01:22:22;;;;;;;8.85;2.50;;;15.20;99.90;;;;;;5099707;28;20099;-77
2022/05/24 01:25:02;;;;;;;5.90;2.10;;;15.20;99.90;;;;;;5099716;28;20107;-76
2022/05/24 01:27:28;;;;;;;10.18;3.35;;;15.20;99.90;;;;;;5099731;28;20043;-76
2022/05/24 01:29:54;;;;;;;10.77;2.75;;;15.20;99.90;;;;;;5099260;28;20020;-77
2022/05/24 01:38:02;;;;;;;7.97;3.00;;;15.20;99.90;;;;;;5061853;28;20509;-77
2022/05/24 01:40:29;;;;;;;6.47;2.85;;;15.20;99.90;;;;;;5085377;28;20028;-77
2022/05/24 01:42:55;;;;;;;8.55;2.22;;;15.20;99.90;;;;;;5098135;28;20065;-76
2022/05/24 01:45:29;;;;;;;6.90;2.72;;;15.20;99.90;;;;;;5097369;28;20028;-77
2022/05/24 01:47:59;;;;;;;8.50;3.53;;;15.10;99.90;;;;;;5077867;28;20131;-77
2022/05/24 01:50:27;;;;;;;4.53;2.50;;;15.10;99.90;;;;;;5077710;28;20036;-75
2022/05/24 01:53:02;;;;;;;5.88;2.35;;;15.10;99.90;;;;;;5077782;28;20025;-77
2022/05/24 01:55:31;;;;;;;4.65;2.20;;;15.10;99.90;;;;;;5078911;28;20674;-76
2022/05/24 01:58:01;;;;;;;8.80;2.63;;;15.00;99.90;;;;;;5078818;28;20020;-77
2022/05/24 02:00:27;;;;;;;5.97;2.63;;;15.00;99.90;;;;;;5078527;28;20032;-76
2022/05/24 02:02:53;;;;;;;11.57;2.95;;;15.00;99.90;;;;;;5077297;28;20424;-77
2022/05/24 02:05:40;;;;;;;11.32;3.05;;;15.00;99.90;;;;;;5077525;28;20395;-76
2022/05/24 02:08:09;;;;;;;7.82;3.03;;;15.00;99.90;;;;;;5077090;28;20029;-77
2022/05/24 02:10:53;;;;;;;10.23;2.83;;;15.10;99.90;;;;;;5077197;28;20032;-78
2022/05/24 02:13:27;;;;;;;6.32;2.50;;;15.00;99.90;;;;;;5077143;28;20021;-78
2022/05/24 02:15:56;;;;;;;8.90;3.45;;;15.00;99.90;;;;;;5068357;28;20461;-77
2022/05/24 02:18:23;;;;;;;4.25;2.80;;;15.00;99.90;;;;;;5057123;28;20045;-77
2022/05/24 02:20:49;;;;;;;7.55;2.60;;;15.00;99.90;;;;;;5056905;28;20029;-76
2022/05/24 02:23:18;;;;;;;5.38;2.60;;;15.00;99.90;;;;;;5058454;28;20497;-77
2022/05/24 02:25:54;;;;;;;6.65;2.58;;;15.00;99.90;;;;;;5057125;28;20036;-77
2022/05/24 02:28:25;;;;;;;6.50;2.92;;;15.00;99.90;;;;;;5058244;28;20035;-77
2022/05/24 02:30:57;;;;;;;9.18;2.88;;;14.90;99.90;;;;;;5056339;28;20063;-77
2022/05/24 02:33:23;;;;;;;15.90;3.35;;;15.00;99.90;;;;;;5057041;28;20033;-77
2022/05/24 02:35:50;;;;;;;6.70;2.63;;;15.00;99.90;;;;;;5056558;28;20477;-77
2022/05/24 02:38:16;;;;;;;9.93;3.03;;;15.00;99.90;;;;;;5056661;28;20512;-77
2022/05/24 02:43:26;;;;;;;7.25;2.70;;;14.90;99.90;;;;;;5057806;28;20028;-77
2022/05/24 02:45:52;;;;;;;8.27;2.45;;;14.90;99.90;;;;;;5061778;28;20044;-77
2022/05/24 02:48:18;;;;;;;10.80;3.42;;;14.90;99.90;;;;;;5093653;28;20476;-77
2022/05/24 02:50:44;;;;;;;6.60;2.42;;;14.90;99.90;;;;;;5097977;28;20020;-77
2022/05/24 02:53:10;;;;;;;5.60;2.92;;;14.90;99.90;;;;;;5096561;28;20484;-76
2022/05/24 02:55:37;;;;;;;7.60;3.00;;;14.90;99.90;;;;;;5097908;28;20028;-77
2022/05/24 02:58:03;;;;;;;7.75;2.55;;;14.90;99.90;;;;;;5096502;28;20045;-76
2022/05/24 03:00:30;;;;;;;6.95;2.70;;;14.90;99.90;;;;;;5097591;28;20020;-76
2022/05/24 03:02:56;;;;;;;7.90;2.30;;;14.90;99.90;;;;;;5097692;28;20114;-77
2022/05/24 03:05:23;;;;;;;7.43;2.80;;;14.90;99.90;;;;;;5097991;28;20111;-77
2022/05/24 03:10:35;;;;;;;7.85;3.72;;;14.80;99.90;;;;;;5097651;28;20032;-77
2022/05/24 03:15:46;;;;;;;7.63;2.97;;;14.80;99.90;;;;;;5089861;28;20031;-77
2022/05/24 03:18:14;;;;;;;7.32;3.28;;;14.80;99.90;;;;;;5096627;28;20047;-76
2022/05/24 03:20:43;;;;;;;7.30;3.15;;;14.80;99.90;;;;;;5097420;28;20016;-77
2022/05/24 03:23:09;;;;;;;8.00;2.85;;;14.80;99.90;;;;;;5096290;28;20031;-77
2022/05/24 03:25:36;;;;;;;9.52;2.78;;;14.70;99.90;;;;;;5097384;28;20055;-77
2022/05/24 03:28:03;;;;;;;10.57;2.88;;;14.70;99.90;;;;;;5097585;28;20130;-77
2022/05/24 03:30:30;;;;;;;5.97;2.65;;;14.70;99.90;;;;;;5096691;28;20027;-76
2022/05/24 03:32:56;;;;;;;4.32;2.53;;;14.70;99.90;;;;;;5097500;28;20027;-77
2022/05/24 03:35:22;;;;;;;7.43;2.90;;;14.70;99.90;;;;;;5097269;28;20020;-77
2022/05/24 03:37:48;;;;;;;6.30;2.53;;;14.70;99.90;;;;;;5096321;28;20122;-77
2022/05/24 03:40:14;;;;;;;8.20;2.47;;;14.70;99.90;;;;;;5083871;28;20056;-77
2022/05/24 03:42:40;;;;;;;5.20;2.50;;;14.70;99.90;;;;;;5097497;28;20055;-77
2022/05/24 03:45:08;;;;;;;5.55;2.75;;;14.60;99.90;;;;;;5096757;28;20027;-76
2022/05/24 03:47:36;;;;;;;4.22;2.38;;;14.60;99.90;;;;;;5097057;28;20055;-76
2022/05/24 03:50:04;;;;;;;6.20;2.80;;;14.60;99.90;;;;;;5097106;28;20028;-77
2022/05/24 03:52:29;;;;;;;7.45;2.33;;;14.60;99.90;;;;;;5097365;28;20027;-77
2022/05/24 03:54:56;;;;;;;6.03;2.75;;;14.60;99.90;;;;;;5097095;28;20016;-77
2022/05/24 04:00:08;;;;;;;7.50;2.97;;;14.60;99.90;;;;;;5096639;28;20408;-78
2022/05/24 04:02:33;;;;;;;8.80;2.60;;;14.60;99.90;;;;;;5097408;28;20061;-78
2022/05/24 04:04:59;;;;;;;8.43;3.17;;;14.60;99.90;;;;;;5096960;28;20020;-76
2022/05/24 04:07:25;;;;;;;4.85;2.10;;;14.60;99.90;;;;;;5097003;28;20028;-76
2022/05/24 04:09:51;;;;;;;4.30;2.25;;;14.50;99.90;;;;;;5095483;28;20456;-76
2022/05/24 04:12:17;;;;;;;8.93;2.20;;;14.50;99.90;;;;;;5095644;28;20028;-78
2022/05/24 04:14:43;;;;;;;5.95;2.30;;;14.50;99.90;;;;;;5077129;28;20021;-77
2022/05/24 04:17:08;;;;;;;10.20;2.60;;;14.50;99.90;;;;;;5075683;28;20027;-78
2022/05/24 04:19:34;;;;;;;6.18;2.22;;;14.50;99.90;;;;;;5095816;28;20017;-78
2022/05/24 04:22:00;;;;;;;5.18;2.67;;;14.50;99.90;;;;;;5097190;28;20494;-76
2022/05/24 04:24:26;;;;;;;3.70;2.28;;;14.40;99.90;;;;;;5095366;28;20028;-77
2022/05/24 04:26:52;;;;;;;9.95;2.90;;;14.40;99.90;;;;;;5095879;28;20455;-77
2022/05/24 04:29:18;;;;;;;7.07;2.97;;;14.40;99.90;;;;;;5098073;28;20046;-77
2022/05/24 04:31:44;;;;;;;4.85;2.55;;;14.50;99.90;;;;;;5099375;28;20020;-77
2022/05/24 04:34:10;;;;;;;8.20;2.42;;;14.40;99.90;;;;;;5100697;28;20031;-77
2022/05/24 04:36:36;;;;;;;4.15;2.72;;;14.40;99.90;;;;;;5099320;28;20020;-76
2022/05/24 04:39:02;;;;;;;5.55;2.58;;;14.40;99.90;;;;;;5094215;28;20032;-76
2022/05/24 04:44:12;;;;;;;4.68;2.38;;;14.50;99.90;;;;;;5100564;28;20042;-77
2022/05/24 04:49:23;;;;;;;6.43;2.70;;;14.50;99.90;;;;;;5100306;28;20035;-77
2022/05/24 04:51:53;;;;;;;3.05;2.05;;;14.50;99.90;;;;;;5098942;28;20403;-77
2022/05/24 04:54:20;;;;;;;6.80;2.60;;;14.50;99.90;;;;;;5100418;28;20475;-79
2022/05/24 04:56:46;;;;;;;4.70;2.45;;;14.50;99.90;;;;;;5098772;28;20028;-77
2022/05/24 04:59:16;;;;;;;6.32;2.88;;;14.50;99.90;;;;;;5100197;28;20024;-77
2022/05/24 05:01:44;;;;;;;7.05;2.97;;;14.50;99.90;;;;;;5099761;28;20035;-77
2022/05/24 05:04:10;;;;;;;7.18;2.45;;;14.50;99.90;;;;;;5098603;28;20077;-79
2022/05/24 05:06:36;;;;;;;5.32;2.72;;;14.50;99.90;;;;;;5099982;28;20419;-77
2022/05/24 05:09:02;;;;;;;4.45;2.20;;;14.50;99.90;;;;;;5099661;28;20119;-77
2022/05/24 05:11:28;;;;;;;3.85;1.95;;;14.50;99.90;;;;;;5098306;28;20059;-77
2022/05/24 05:13:54;;;;;;;3.42;2.40;;;14.40;99.90;;;;;;5099687;28;20357;-77
2022/05/24 05:16:20;;;;;;;6.32;3.05;;;14.40;99.90;;;;;;5084582;28;20036;-78
2022/05/24 05:18:46;;;;;;;5.03;2.97;;;14.40;99.90;;;;;;5092631;28;20020;-77
2022/05/24 05:21:12;;;;;;;9.88;2.80;;;14.40;99.90;;;;;;5099221;28;20035;-77
2022/05/24 05:23:37;;;;;;;5.70;2.63;;;14.50;99.90;;;;;;5099514;28;20028;-77
2022/05/24 05:26:03;;;;;;;5.90;2.55;;;14.50;99.90;;;;;;5098135;28;20055;-77
2022/05/24 05:28:29;;;;;;;7.32;2.50;;;14.50;99.90;;;;;;5098005;28;20107;-77
2022/05/24 05:33:39;;;;;;;5.25;2.45;;;14.60;99.90;;;;;;5099202;28;20054;-77
2022/05/24 05:36:05;;;;;;;4.35;2.50;;;14.70;99.90;;;;;;5098221;28;20024;-78
2022/05/24 05:38:32;;;;;;;9.60;2.60;;;14.70;99.90;;;;;;5092396;28;20027;-77
2022/05/24 05:41:00;;;;;;;8.93;2.92;;;14.80;99.90;;;;;;5087472;28;20532;-77
2022/05/24 05:43:27;;;;;;;10.93;2.58;;;14.90;99.90;;;;;;5092623;28;20024;-78
2022/05/24 05:45:58;;;;;;;9.75;2.60;;;14.90;99.90;;;;;;5097193;28;20056;-77
2022/05/24 05:48:25;;;;;;;7.10;2.67;;;15.00;99.90;;;;;;5098703;28;20052;-77
2022/05/24 05:50:51;;;;;;;9.45;2.28;;;15.00;99.90;;;;;;5098784;28;20031;-76
2022/05/24 05:53:18;;;;;;;7.30;3.15;;;15.10;99.90;;;;;;5097257;28;20021;-78
2022/05/24 05:55:45;;;;;;;4.60;2.50;;;15.20;99.90;;;;;;5099189;28;20016;-77
2022/05/24 05:58:11;;;;;;;7.05;2.33;;;15.30;99.90;;;;;;5097567;28;20024;-78
2022/05/24 06:00:39;;;;;;;5.50;2.70;;;15.30;99.90;;;;;;5097033;28;20104;-77
2022/05/24 06:03:06;;;;;;;7.70;2.15;;;15.30;99.90;;;;;;5097558;28;20027;-78
2022/05/24 06:05:32;;;;;;;7.95;2.95;;;15.30;99.90;;;;;;5097327;28;20043;-77
2022/05/24 06:07:59;;;;;;;7.13;2.53;;;15.30;99.90;;;;;;5098514;28;20500;-77
2022/05/24 06:10:26;;;;;;;10.80;2.55;;;15.30;99.90;;;;;;5098651;28;20024;-77
2022/05/24 06:12:52;;;;;;;6.53;2.45;;;15.30;99.90;;;;;;5098539;28;21343;-77
2022/05/24 06:15:19;;;;;;;6.68;2.40;;;15.30;99.90;;;;;;5091361;28;20021;-77
2022/05/24 06:17:50;;;;;;;11.57;3.70;;;15.30;99.90;;;;;;5095911;28;20016;-78
2022/05/24 06:20:17;;;;;;;;;;;15.30;99.90;;;;;;5097386;28;20027;-76
2022/05/24 06:22:43;;;;;;;11.93;3.05;;;15.30;99.90;;;;;;5098215;28;20296;-78
2022/05/24 06:25:10;;;;;;;6.22;2.55;;;15.30;99.90;;;;;;5098721;28;20024;-78
2022/05/24 06:27:36;;;;;;;9.38;2.75;;;15.30;99.90;;;;;;5098123;28;20032;-77
2022/05/24 06:30:03;;;;;;;7.55;3.22;;;15.30;99.90;;;;;;5096401;28;20072;-78
2022/05/24 06:32:30;;;;;;;10.25;2.60;;;15.40;99.90;;;;;;5097897;28;20016;-77
2022/05/24 06:34:56;;;;;;;6.63;2.75;;;15.60;99.90;;;;;;5098337;28;20063;-78
2022/05/24 06:37:22;;;;;;;7.50;2.40;;;15.60;99.90;;;;;;5097911;28;20049;-78
2022/05/24 06:39:49;;;;;;;7.68;2.55;;;15.60;99.90;;;;;;5083253;28;20461;-77
2022/05/24 06:42:15;;;;;;;8.05;1.90;;;15.50;99.90;;;;;;5095750;28;20073;-76
2022/05/24 06:44:41;;;;;;;10.18;2.70;;;15.50;99.90;;;;;;5097616;28;20081;-76
2022/05/24 06:47:08;;;;;;;9.05;2.55;;;15.60;99.90;;;;;;5081474;28;20056;-77
2022/05/24 06:49:34;;;;;;;13.85;3.50;;;15.60;99.90;;;;;;5088937;28;20024;-78
2022/05/24 06:51:59;;;;;;;7.40;2.72;;;15.70;99.90;;;;;;5096091;28;20024;-77
2022/05/24 06:54:25;;;;;;;9.10;2.40;;;15.70;99.90;;;;;;5097726;28;20023;-78
2022/05/24 06:56:51;;;;;;;7.85;2.63;;;15.60;99.90;;;;;;5096054;28;20112;-77
2022/05/24 07:04:46;;;;;;;7.88;2.53;;;15.90;99.90;;;;;;5097666;28;20561;-76
2022/05/24 07:07:11;;;;;;;11.63;2.95;;;16.00;99.90;;;;;;5096186;28;20024;-76
2022/05/24 07:09:40;;;;;;;10.85;2.30;;;15.90;99.90;;;;;;5095890;28;20085;-78
2022/05/24 07:12:06;;;;;;;8.20;3.28;;;15.80;99.90;;;;;;5096149;28;20016;-77
2022/05/24 07:14:36;;;;;;;9.70;2.75;;;15.80;99.90;;;;;;5097072;28;20023;-78
2022/05/24 07:17:02;;;;;;;5.57;2.47;;;15.90;99.90;;;;;;5076781;28;20062;-79
2022/05/24 07:19:28;;;;;;;10.55;3.03;;;16.00;99.90;;;;;;5095948;28;20028;-77
2022/05/24 07:21:54;;;;;;;8.70;2.60;;;16.20;99.90;;;;;;5097225;28;20027;-77
2022/05/24 07:24:19;;;;;;;8.77;3.03;;;16.40;99.90;;;;;;5097366;28;20392;-77
2022/05/24 07:26:45;;;;;;;6.82;2.58;;;16.40;99.90;;;;;;5095933;28;20035;-77
2022/05/24 07:29:11;;;;;;;11.27;2.80;;;16.50;99.90;;;;;;5095796;28;20020;-76
2022/05/24 07:31:38;;;;;;;8.35;2.45;;;16.50;99.90;;;;;;5097065;28;20438;-78
2022/05/24 07:34:05;;;;;;;4.90;2.17;;;16.40;99.90;;;;;;5095586;28;20028;-77
2022/05/24 07:36:31;;;;;;;9.02;2.85;;;16.40;99.90;;;;;;5095750;28;20400;-78
2022/05/24 07:38:58;;;;;;;10.32;2.53;;;16.50;99.90;;;;;;5090156;28;20027;-76
2022/05/24 07:46:54;;;;;;;5.50;1.75;;;16.60;99.90;;;;;;5096964;28;20100;-76
2022/05/24 07:49:19;;;;;;;11.25;2.63;;;16.70;99.90;;;;;;5097570;28;20111;-77
2022/05/24 07:51:45;;;;;;;5.78;1.67;;;16.70;99.90;;;;;;5091710;28;20032;-77
2022/05/24 07:54:11;;;;;;;5.90;1.92;;;16.80;99.90;;;;;;5087492;28;20051;-77
2022/05/24 07:56:37;;;;;;;7.65;2.47;;;16.70;99.90;;;;;;5094413;28;20445;-77
2022/05/24 07:59:03;;;;;;;9.05;3.03;;;16.80;99.90;;;;;;5087964;28;20016;-77
2022/05/24 08:01:28;;;;;;;7.70;2.42;;;17.00;99.90;;;;;;5096467;28;20508;-77
2022/05/24 08:03:54;;;;;;;6.57;2.38;;;17.30;99.90;;;;;;5101117;28;20020;-78
2022/05/24 08:06:20;;;;;;;5.80;2.30;;;17.40;99.90;;;;;;5099578;28;20032;-77
2022/05/24 08:08:46;;;;;;;7.55;2.10;;;17.50;99.90;;;;;;5099688;28;20473;-77
2022/05/24 08:11:12;;;;;;;10.43;2.40;;;17.20;99.90;;;;;;5100667;28;20400;-76
2022/05/24 08:13:38;;;;;;;5.63;2.28;;;17.10;99.90;;;;;;5101062;28;20063;-78
2022/05/24 08:16:04;;;;;;;11.43;2.10;;;17.00;99.90;;;;;;5093703;28;20044;-79
2022/05/24 08:18:30;;;;;;;8.07;1.80;;;16.80;99.90;;;;;;5099727;28;20494;-78
2022/05/24 08:20:57;;;;;;;8.30;2.20;;;16.80;99.90;;;;;;5100380;28;20026;-77
2022/05/24 08:23:24;;;;;;;7.53;2.47;;;16.70;99.90;;;;;;5098298;28;20024;-77
2022/05/24 08:25:51;;;;;;;10.82;1.70;;;16.80;99.90;;;;;;5097567;28;20137;-78
2022/05/24 08:28:17;;;;;;;5.75;2.20;;;16.90;99.90;;;;;;5099303;28;20391;-77
2022/05/24 08:30:43;;;;;;;11.45;2.00;;;17.00;99.90;;;;;;5099979;28;20059;-77
2022/05/24 08:33:15;;;;;;;5.45;2.03;;;17.00;99.90;;;;;;5099121;28;20118;-77
2022/05/24 08:35:43;;;;;;;7.60;2.63;;;17.20;99.90;;;;;;5100338;28;20024;-77
2022/05/24 08:38:09;;;;;;;5.72;1.67;;;17.30;99.90;;;;;;5100392;28;20025;-77
2022/05/24 08:40:38;;;;;;;4.85;2.42;;;17.10;99.90;;;;;;5086469;28;20082;-77
2022/05/24 08:43:30;;;;;;;5.70;2.60;;;17.10;99.90;;;;;;5098894;28;20032;-78
2022/05/24 08:48:52;;;;;;;2.75;1.80;;;16.90;99.90;;;;;;5100129;28;20441;-78
2022/05/24 08:51:28;;;;;;;7.37;2.60;;;16.90;99.90;;;;;;5100040;28;20062;-78
2022/05/24 08:53:57;;;;;;;3.50;1.45;;;17.00;99.90;;;;;;5100051;28;20020;-78
2022/05/24 08:56:31;;;;;;;4.60;1.90;;;17.00;99.90;;;;;;5096941;28;20016;-77
2022/05/24 08:59:16;;;;;;;7.15;1.67;;;16.90;99.90;;;;;;5079679;28;20604;-77
2022/05/24 09:01:44;;;;;;;8.75;2.13;;;16.80;99.90;;;;;;5099447;28;20099;-78
2022/05/24 09:04:11;;;;;;;6.03;1.90;;;16.80;99.90;;;;;;5099817;28;20028;-76
2022/05/24 09:06:40;;;;;;;7.20;2.28;;;16.80;99.90;;;;;;5098439;28;20476;-78
2022/05/24 09:09:18;;;;;;;8.73;2.20;;;16.70;99.90;;;;;;5098042;28;20070;-79
2022/05/24 09:12:16;;;;;;;7.35;2.67;;;16.70;99.90;;;;;;5098330;28;20024;-78
2022/05/24 09:14:52;;;;;;;5.65;1.83;;;16.60;99.90;;;;;;5098520;28;20032;-77
2022/05/24 09:17:56;;;;;;;4.75;2.13;;;16.70;99.90;;;;;;5088469;28;20029;-78
2022/05/24 09:20:25;;;;;;;5.65;2.13;;;16.60;99.90;;;;;;5099556;28;20043;-78
2022/05/24 09:23:06;;;;;;;8.07;2.40;;;16.60;99.90;;;;;;5099617;28;20035;-77
2022/05/24 09:25:32;;;;;;;8.98;2.67;;;16.60;99.90;;;;;;5098138;28;20039;-77
2022/05/24 09:27:57;;;;;;;5.28;2.30;;;16.60;99.90;;;;;;5099454;28;20024;-78
2022/05/24 09:30:45;;;;;;;9.27;2.40;;;16.70;99.90;;;;;;5098560;28;20052;-77
2022/05/24 09:33:24;;;;;;;9.90;2.25;;;17.00;99.90;;;;;;5099270;28;20020;-78
2022/05/24 09:35:57;;;;;;;12.52;2.42;;;17.30;99.90;;;;;;5088660;28;20050;-78
2022/05/24 09:38:34;;;;;;;6.63;2.13;;;17.20;99.90;;;;;;5096874;28;20048;-78
2022/05/24 09:41:17;;;;;;;11.15;2.35;;;17.10;99.90;;;;;;5088215;28;20024;-79
2022/05/24 09:43:57;;;;;;;3.50;1.88;;;17.00;99.90;;;;;;5097813;28;20062;-79
2022/05/24 09:46:26;;;;;;;4.53;1.95;;;17.00;99.90;;;;;;5097284;28;20056;-77
2022/05/24 09:49:03;;;;;;;8.75;2.00;;;17.00;99.90;;;;;;5098813;28;20035;-77
2022/05/24 09:51:40;;;;;;;11.77;2.60;;;16.90;99.90;;;;;;5099164;28;20353;-79
2022/05/24 09:54:15;;;;;;;6.32;1.83;;;17.00;99.90;;;;;;5097425;28;20092;-79
2022/05/24 09:56:42;;;;;;;5.50;1.98;;;17.00;99.90;;;;;;5098640;28;20031;-78
2022/05/24 09:59:23;;;;;;;6.47;1.60;;;17.10;99.90;;;;;;5097219;28;20392;-78
2022/05/24 10:01:50;;;;;;;4.88;1.70;;;17.10;99.90;;;;;;5097406;28;20453;-77
2022/05/24 10:04:39;;;;;;;6.38;2.17;;;17.20;99.90;;;;;;5097283;28;20020;-78
2022/05/24 10:07:23;;;;;;;6.18;2.17;;;17.10;99.90;;;;;;5097033;28;20028;-77
2022/05/24 10:10:14;;;;;;;7.28;3.33;;;17.10;99.90;;;;;;5098244;28;20024;-78
2022/05/24 10:12:52;;;;;;;6.65;2.53;;;17.00;99.90;;;;;;5091482;28;20059;-78
2022/05/24 10:15:44;;;;;;;9.27;1.98;;;17.00;99.90;;;;;;5093399;28;20013;-82
2022/05/24 10:18:34;;;;;;;8.48;2.55;;;17.10;99.90;;;;;;5070742;28;20046;-79
2022/05/24 10:21:06;;;;;;;;;;;17.20;99.90;;;;;;5098398;28;20024;-80
2022/05/24 10:24:04;;;;;;;4.95;1.88;;;17.20;99.90;;;;;;5113934;28;19961;-79
2022/05/24 10:26:42;;;;;;;9.55;2.70;;;17.30;99.90;;;;;;5096072;28;20054;-79
2022/05/24 10:29:26;;;;;;;6.82;2.05;;;17.30;99.90;;;;;;5098114;28;20399;-79
2022/05/24 10:31:57;;;;;;;12.15;3.10;;;17.20;99.90;;;;;;5097965;28;20050;-80
2022/05/24 10:40:43;;;;;;;9.63;2.55;;;17.10;99.90;;;;;;5084134;28;20169;-78
2022/05/24 10:43:12;;;;;;;7.88;2.20;;;17.30;99.90;;;;;;5090056;28;20408;-80
2022/05/24 10:45:50;;;;;;;6.60;3.58;;;17.30;99.90;;;;;;5077173;28;20033;-78
2022/05/24 10:48:54;;;;;;;5.32;2.53;;;17.30;99.90;;;;;;5073837;28;20156;-78
2022/05/24 10:51:39;;;;;;;10.35;2.50;;;17.20;99.90;;;;;;5073953;28;20017;-78
2022/05/24 10:54:42;;;;;;;4.93;1.83;;;17.20;99.90;;;;;;5074172;28;20064;-78
2022/05/24 10:57:22;;;;;;;8.13;2.45;;;17.20;99.90;;;;;;5074010;28;20032;-78
2022/05/24 10:59:59;;;;;;;7.40;1.90;;;17.30;99.90;;;;;;5072051;28;20086;-78
2022/05/24 11:02:41;;;;;;;7.35;2.08;;;17.20;99.90;;;;;;5073901;28;20032;-78
2022/05/24 11:05:18;;;;;;;10.57;2.17;;;17.10;99.90;;;;;;5073700;28;20032;-78
2022/05/24 11:07:48;;;;;;;5.45;2.03;;;17.10;99.90;;;;;;5072008;28;20052;-78
2022/05/24 11:10:28;;;;;;;6.65;1.92;;;17.20;99.90;;;;;;5072202;28;20049;-77
2022/05/24 11:12:58;;;;;;;7.82;2.45;;;17.30;99.90;;;;;;5055262;28;20072;-79
2022/05/24 11:15:34;;;;;;;11.02;2.25;;;17.50;99.90;;;;;;5052793;28;20025;-77
2022/05/24 11:18:20;;;;;;;15.43;3.50;;;17.60;99.90;;;;;;5053429;28;20040;-77
2022/05/24 11:21:30;;;;;;;7.70;2.22;;;17.50;99.90;;;;;;5053317;28;20062;-78
2022/05/24 11:24:04;;;;;;;10.70;3.17;;;17.60;99.90;;;;;;5057811;28;20102;-78
2022/05/24 11:26:39;;;;;;;11.15;3.33;;;17.50;99.90;;;;;;5053330;28;20029;-78
2022/05/24 11:29:25;;;;;;;10.73;2.90;;;17.60;99.90;;;;;;5052267;28;20017;-79
2022/05/24 11:32:00;;;;;;;5.55;1.75;;;17.30;99.90;;;;;;5053025;28;20030;-78
2022/05/24 11:34:35;;;;;;;7.55;2.10;;;17.10;99.90;;;;;;5053340;28;20556;-77
2022/05/24 11:37:22;;;;;;;11.27;2.28;;;17.20;99.90;;;;;;5053113;28;20334;-78
2022/05/24 11:39:48;;;;;;;8.25;2.17;;;17.30;99.90;;;;;;5053155;28;20021;-78
2022/05/24 11:42:23;;;;;;;7.07;2.25;;;17.60;99.90;;;;;;5051645;28;20082;-78
2022/05/24 11:44:54;;;;;;;5.97;1.88;;;17.90;99.90;;;;;;5051104;28;20093;-78
2022/05/24 11:47:35;;;;;;;13.50;3.00;;;18.10;99.90;;;;;;5064043;28;20190;-77
2022/05/24 11:50:04;;;;;;;;;;;18.20;99.90;;;;;;5071764;28;20123;-77
2022/05/24 11:53:03;;;;;;;5.95;1.70;;;18.20;99.90;;;;;;5071346;28;19905;-77
2022/05/24 11:55:55;;;;;;;8.88;2.38;;;18.10;99.90;;;;;;5072897;28;20025;-78
2022/05/24 11:58:22;;;;;;;17.35;2.50;;;17.90;99.90;;;;;;5057525;28;20116;-78
2022/05/24 12:01:04;;;;;;;8.63;2.38;;;18.10;99.90;;;;;;5048752;28;20104;-78
2022/05/24 12:09:25;;;;;;;8.13;2.05;;;18.90;99.90;;;;;;5059262;28;20048;-77
2022/05/24 12:12:16;;;;;;;8.43;2.22;;;19.00;99.90;;;;;;5059099;28;20017;-77
2022/05/24 12:14:42;;;;;;;;;;;19.10;99.90;;;;;;5057577;28;20206;-78
2022/05/24 12:17:24;;;;;;;7.22;2.15;;;19.10;99.90;;;;;;5050274;28;19905;-78
2022/05/24 12:19:52;;;;;;;7.55;1.92;;;18.70;99.90;;;;;;5059245;28;20025;-78
2022/05/24 12:22:27;;;;;;;8.65;2.08;;;18.40;99.90;;;;;;5057392;28;20025;-78
2022/05/24 12:25:05;;;;;;;5.03;1.38;;;18.50;99.90;;;;;;5057563;28;20040;-77
2022/05/24 12:27:48;;;;;;;8.93;2.50;;;18.50;99.90;;;;;;5057492;28;20489;-77
2022/05/24 12:30:29;;;;;;;6.03;1.48;;;18.60;99.90;;;;;;5058355;28;20055;-77
2022/05/24 12:33:04;;;;;;;5.40;1.95;;;18.80;99.90;;;;;;5057382;28;20029;-77
2022/05/24 12:35:32;;;;;;;7.38;1.98;;;19.00;99.90;;;;;;5057287;28;20025;-77
2022/05/24 12:37:58;;;;;;;7.05;2.78;;;18.90;99.90;;;;;;5057604;28;20158;-76
2022/05/24 12:40:29;;;;;;;11.82;2.45;;;18.90;99.90;;;;;;5057040;28;20082;-77
2022/05/24 12:43:07;;;;;;;4.93;1.73;;;18.70;99.90;;;;;;5058768;28;20152;-77
2022/05/24 12:45:42;;;;;;;10.80;2.53;;;18.60;99.90;;;;;;5057952;28;20473;-78
2022/05/24 12:48:34;;;;;;;4.63;1.80;;;18.60;99.90;;;;;;5056672;28;20043;-77
2022/05/24 12:51:07;;;;;;;6.00;2.17;;;19.20;99.90;;;;;;5058456;28;20045;-76
2022/05/24 12:53:34;;;;;;;9.13;2.42;;;19.20;99.90;;;;;;5058180;28;20025;-75
2022/05/24 12:56:06;;;;;;;12.75;2.88;;;19.30;99.90;;;;;;5058200;28;20393;-76
2022/05/24 12:58:38;;;;;;;7.15;2.70;;;19.50;99.90;;;;;;5057979;28;20489;-76
2022/05/24 13:01:21;;;;;;;6.18;2.20;;;19.50;99.90;;;;;;5056354;28;20029;-76
2022/05/24 13:04:08;;;;;;;6.97;2.83;;;19.30;99.90;;;;;;5056740;28;20021;-75
2022/05/24 13:06:37;;;;;;;6.97;1.80;;;19.30;99.90;;;;;;5057835;28;20036;-75
2022/05/24 13:09:12;;;;;;;7.55;2.03;;;19.30;99.90;;;;;;5057901;28;20017;-75
2022/05/24 13:11:38;;;;;;;9.15;2.53;;;19.20;99.90;;;;;;5055855;28;20025;-76
2022/05/24 13:14:05;;;;;;;4.75;1.95;;;19.10;99.90;;;;;;5057622;28;20024;-76
2022/05/24 13:16:33;;;;;;;11.18;2.78;;;19.10;99.90;;;;;;5048807;28;20059;-75
2022/05/24 13:19:01;;;;;;;8.90;1.80;;;19.20;99.90;;;;;;5056258;28;20021;-76
2022/05/24 13:21:27;;;;;;;7.50;2.08;;;19.00;99.90;;;;;;5057799;28;20488;-75
2022/05/24 13:24:15;;;;;;;6.05;1.83;;;19.00;99.90;;;;;;5057770;28;20459;-75
2022/05/24 13:27:02;;;;;;;4.82;1.30;;;19.00;99.90;;;;;;5056399;28;20095;-75
2022/05/24 13:33:33;;;;;;;5.80;1.60;;;18.90;99.90;;;;;;5057345;28;20025;-75
2022/05/24 13:35:02;;;;;;;7.22;1.40;;;18.60;99.90;;;;;;5057850;28;20067;-75
2022/05/24 13:37:50;;;;;;;9.95;3.72;;;18.50;99.90;;;;;;5057268;28;20082;-76
2022/05/24 13:40:17;;;;;;;10.25;2.92;;;18.50;99.90;;;;;;5042842;28;20044;-76
2022/05/24 13:42:56;;;;;;;6.53;2.30;;;18.50;99.90;;;;;;5055997;28;20021;-76
2022/05/24 13:45:28;;;;;;;6.40;1.88;;;18.60;99.90;;;;;;5056755;28;20036;-76
2022/05/24 13:48:00;;;;;;;10.13;2.58;;;18.70;99.90;;;;;;5057050;28;20495;-76
2022/05/24 13:50:29;;;;;;;9.10;2.53;;;18.70;99.90;;;;;;5057279;28;20389;-77
2022/05/24 13:53:35;;;;;;;5.10;2.22;;;18.80;99.90;;;;;;5055760;28;20021;-77
2022/05/24 13:56:22;;;;;;;6.20;1.50;;;18.60;99.90;;;;;;5039994;28;20040;-75
2022/05/24 13:59:03;;;;;;;8.38;1.95;;;18.50;99.90;;;;;;5055673;28;20071;-77
2022/05/24 14:01:40;;;;;;;4.75;2.08;;;18.20;99.90;;;;;;5056626;28;20500;-77